Terminal Aerodrome Forecast
Issued by NWS

Home | Current Version | Previous Version | Text Only | Print | Product List | Glossary On
Versions: 1 2 3 4 5 6 7 8 9 10 11 12 13 14 15 16 17 18
690
FTUS45 KABQ 242342
TAFAEG
TAF
KAEG 242342Z 2500/2524 15011KT P6SM VCTS SCT090CB BKN120
      TEMPO 2500/2502 VRB20G30KT 5SM -TSRA BKN070CB
     FM250200 03009KT P6SM VCSH SCT080 BKN120
      TEMPO 2502/2504 VRB15G25KT -SHRA BKN080
     FM250500 04006KT P6SM SCT100 BKN150
     FM251500 13007KT P6SM SCT140
     FM252300 15010KT P6SM VCTS BKN070CB OVC120=

USA.gov is the U.S. government's official web portal to all federal, state and local government web resources and services.